Parramatta North, New South Wales

7:24 AM AEST on July 27, 2016 (GMT +1000)
INEWSOUT126 | | Change Station

Elev 190 ft 33.79 °S, 151.04 °E | Updated 23 seconds ago

Clear
Clear
52.3 °F
Feels Like 52.3 °F
N
4.2
Wind Variable Wind from NW

Today
High -- | Low -- °F
--% Chance of Precip.
Yesterday
High -- | Low -- °F
Precip. -- in
Pressure 29.89 in
Visibility 6.2 miles
Clouds
Dew Point 37 °F
Humidity 58%
Rainfall in
Snow Depth Not available.
6:51 AM 5:13 PM
Waning Gibbous, 51% visible
METAR YSRI 262100Z AUTO 36011KT 9999 // NCD 10/05 Q1012
Pressure 29.89 in
Visibility 6.2 miles
Clouds
Dew Point 37 °F
Humidity 58%
Rainfall in
Snow Depth Not available.
6:51 AM 5:13 PM
Waning Gibbous, 51% visible
METAR YSRI 262100Z AUTO 36011KT 9999 // NCD 10/05 Q1012

10-Day Weather Forecast

Almanac

Astronomy

Jul. 27, 2016 Rise Set
Actual Time
Civil Twilight
Nautical Twilight
Astronomical Twilight
Moon
Length of Visible Light
Length of Day
Tomorrow will be .
, % of the Moon is Illuminated

Today's Extremes

Country Highs Country Lows

Community

WunderPhotos

Upload Photos

1,927,702 photos uploaded!

WunderBlog® & News

Nearby

Air Quality

  Air Quality AQ Index Pollutant
Not available.

Snow Depth

Station Depth Elevation

Earthquake Activity

City Distance Mag. Time & Date
Minimum magnitude displayed is 2.5.

Coastal Water Temperatures

Place Temperature

Stations

Nearby Weather Stations

Station Location Temp. Windchill Dew Point Humidity Wind Precip. Elev Updated Type